メインページ
METAR-TAF:

METAR-TAF

空港 :

エリー, ペンシルバニア州, アメリカ合衆国

緯度: 42-04-48N, 経度: 080-10-57W, 海抜: 223m

現時点の気象観測

当レポートは57分前の01:51(UTC)に作成
北西の風 10kt、最大17ktの突風を伴う
気温 2°C
湿度 55%
気圧 1024 hPa
視程: 16.1km
高度5000ftの千切れ雲あり

METAR: KERI 070151Z 32010G17KT 10SM BKN050 02/M06 A3024 RMK AO2 SLP246 T00221056

時間: 21:48 (02:48 UTC)

予報

当レポートは3時間28分前の23:20(UTC)に作成
予報は07日の 00時(UTC)から 07日の 24時(UTC)まで有効
北西の風 11kt
視程: 10km
高度3500ftの千切れ雲あり
弱いにわか雪
07日の 00時(UTC)から 07日の 04時(UTC)まで一時的に
視程: 4.8km
高度3000ftの曇り
弱いにわか雪
07日の 0400時(UTC)から
北西の風 10kt
視程: 4.8km
高度3000ftの曇り
弱いにわか雪
07日の 0800時(UTC)から
西/北西の風 7kt
視程: 10km
高度3500ftの千切れ雲あり
07日の 2200時(UTC)から
変向風 5kt
視程: 10km
高度9000ftの雲は散在している
高度25000ftの雲は散在している

TAF: KERI 062320Z 0700/0724 32011KT P6SM -SHSN BKN035 TEMPO 0700/0704 3SM -SHSN OVC030 FM070400 31010KT 3SM -SHSN OVC030 FM070800 29007KT P6SM BKN035 FM072200 VRB05KT P6SM SCT090 SCT250

4,000以上の空港の気象観測と天気予報(METAR報とTAF報)

利用可能な観測所は地図上に黄色い丸と赤い丸で示す。

丸の上にカーソルを重ねると観測所名を参照できる。

次にクリックすると気象観測と天気予報を参照できる。

マップの切り替え:黒色「×」印の緑ボタンをクリックして拡大、「-」印の緑ボタンをクリックして縮小、緑色の三角印をクリックして隣りの地図に切り替え


METAR-TAF: